sensor_id;sensor_type;location;lat;lon;timestamp;P1;durP1;ratioP1;P2;durP2;ratioP2
26920;SDS011;14483;47.844;9.660;2022-09-24T00:00:38;7.22;;;3.50;;
26920;SDS011;14483;47.844;9.660;2022-09-24T00:03:04;5.60;;;3.25;;
26920;SDS011;14483;47.844;9.660;2022-09-24T00:05:35;6.55;;;3.17;;
26920;SDS011;14483;47.844;9.660;2022-09-24T00:08:01;5.88;;;3.80;;
26920;SDS011;14483;47.844;9.660;2022-09-24T00:10:27;5.90;;;3.88;;
26920;SDS011;14483;47.844;9.660;2022-09-24T00:12:54;7.20;;;4.03;;
26920;SDS011;14483;47.844;9.660;2022-09-24T00:15:20;5.93;;;3.42;;
26920;SDS011;14483;47.844;9.660;2022-09-24T00:17:48;6.32;;;3.88;;
26920;SDS011;14483;47.844;9.660;2022-09-24T00:20:14;4.38;;;3.10;;
26920;SDS011;14483;47.844;9.660;2022-09-24T00:22:40;5.57;;;3.10;;
26920;SDS011;14483;47.844;9.660;2022-09-24T00:25:07;5.45;;;3.72;;
26920;SDS011;14483;47.844;9.660;2022-09-24T00:27:51;4.90;;;3.33;;
26920;SDS011;14483;47.844;9.660;2022-09-24T00:30:17;7.38;;;3.58;;
26920;SDS011;14483;47.844;9.660;2022-09-24T00:32:43;4.70;;;3.40;;
26920;SDS011;14483;47.844;9.660;2022-09-24T00:35:11;6.05;;;3.80;;
26920;SDS011;14483;47.844;9.660;2022-09-24T00:37:37;6.20;;;3.20;;
26920;SDS011;14483;47.844;9.660;2022-09-24T00:40:04;5.63;;;3.67;;
26920;SDS011;14483;47.844;9.660;2022-09-24T00:42:30;7.63;;;3.88;;
26920;SDS011;14483;47.844;9.660;2022-09-24T00:44:57;8.15;;;3.83;;
26920;SDS011;14483;47.844;9.660;2022-09-24T00:47:28;6.72;;;3.10;;
26920;SDS011;14483;47.844;9.660;2022-09-24T00:49:57;5.80;;;3.65;;
26920;SDS011;14483;47.844;9.660;2022-09-24T00:52:25;6.63;;;3.88;;
26920;SDS011;14483;47.844;9.660;2022-09-24T00:54:51;8.10;;;3.78;;
26920;SDS011;14483;47.844;9.660;2022-09-24T00:57:18;7.88;;;4.07;;
26920;SDS011;14483;47.844;9.660;2022-09-24T00:59:44;5.93;;;3.38;;
26920;SDS011;14483;47.844;9.660;2022-09-24T01:02:11;5.40;;;3.10;;
26920;SDS011;14483;47.844;9.660;2022-09-24T01:04:38;7.90;;;3.28;;
26920;SDS011;14483;47.844;9.660;2022-09-24T01:07:04;5.70;;;3.75;;
26920;SDS011;14483;47.844;9.660;2022-09-24T01:09:32;4.85;;;3.42;;
26920;SDS011;14483;47.844;9.660;2022-09-24T01:12:00;5.00;;;3.60;;
26920;SDS011;14483;47.844;9.660;2022-09-24T01:14:39;5.75;;;3.40;;
26920;SDS011;14483;47.844;9.660;2022-09-24T01:17:12;5.72;;;3.42;;
26920;SDS011;14483;47.844;9.660;2022-09-24T01:19:53;4.70;;;3.20;;
26920;SDS011;14483;47.844;9.660;2022-09-24T01:22:27;5.63;;;3.50;;
26920;SDS011;14483;47.844;9.660;2022-09-24T01:25:01;4.10;;;3.20;;
26920;SDS011;14483;47.844;9.660;2022-09-24T01:27:33;7.80;;;3.35;;
26920;SDS011;14483;47.844;9.660;2022-09-24T01:30:07;6.53;;;3.60;;
26920;SDS011;14483;47.844;9.660;2022-09-24T01:32:35;6.40;;;3.45;;
26920;SDS011;14483;47.844;9.660;2022-09-24T01:35:04;4.95;;;3.10;;
26920;SDS011;14483;47.844;9.660;2022-09-24T01:37:33;4.32;;;3.40;;
26920;SDS011;14483;47.844;9.660;2022-09-24T01:40:01;5.55;;;3.20;;
26920;SDS011;14483;47.844;9.660;2022-09-24T01:42:28;5.80;;;3.55;;
26920;SDS011;14483;47.844;9.660;2022-09-24T01:44:55;6.38;;;3.92;;
26920;SDS011;14483;47.844;9.660;2022-09-24T01:47:28;7.90;;;3.70;;
26920;SDS011;14483;47.844;9.660;2022-09-24T01:49:54;8.20;;;3.47;;
26920;SDS011;14483;47.844;9.660;2022-09-24T01:52:22;6.72;;;3.47;;
26920;SDS011;14483;47.844;9.660;2022-09-24T01:54:50;7.13;;;3.55;;
26920;SDS011;14483;47.844;9.660;2022-09-24T01:57:18;12.82;;;4.50;;
26920;SDS011;14483;47.844;9.660;2022-09-24T01:59:47;6.97;;;3.70;;
26920;SDS011;14483;47.844;9.660;2022-09-24T02:02:17;5.70;;;3.78;;
26920;SDS011;14483;47.844;9.660;2022-09-24T02:04:49;5.80;;;3.90;;
26920;SDS011;14483;47.844;9.660;2022-09-24T02:07:17;7.63;;;3.53;;
26920;SDS011;14483;47.844;9.660;2022-09-24T02:09:46;8.25;;;4.30;;
26920;SDS011;14483;47.844;9.660;2022-09-24T02:12:13;5.90;;;4.00;;
26920;SDS011;14483;47.844;9.660;2022-09-24T02:14:41;6.75;;;4.13;;
26920;SDS011;14483;47.844;9.660;2022-09-24T02:17:10;7.10;;;4.07;;
26920;SDS011;14483;47.844;9.660;2022-09-24T02:19:37;7.40;;;3.70;;
26920;SDS011;14483;47.844;9.660;2022-09-24T02:22:06;6.13;;;3.95;;
26920;SDS011;14483;47.844;9.660;2022-09-24T02:24:33;8.70;;;3.70;;
26920;SDS011;14483;47.844;9.660;2022-09-24T02:27:02;5.47;;;3.88;;
26920;SDS011;14483;47.844;9.660;2022-09-24T02:29:28;5.85;;;3.78;;
26920;SDS011;14483;47.844;9.660;2022-09-24T02:31:55;8.25;;;3.95;;
26920;SDS011;14483;47.844;9.660;2022-09-24T02:34:22;3.80;;;2.80;;
26920;SDS011;14483;47.844;9.660;2022-09-24T02:36:51;7.40;;;3.58;;
26920;SDS011;14483;47.844;9.660;2022-09-24T02:39:18;5.07;;;3.42;;
26920;SDS011;14483;47.844;9.660;2022-09-24T02:41:45;4.55;;;3.25;;
26920;SDS011;14483;47.844;9.660;2022-09-24T02:44:12;4.82;;;3.28;;
26920;SDS011;14483;47.844;9.660;2022-09-24T02:46:39;9.35;;;3.50;;
26920;SDS011;14483;47.844;9.660;2022-09-24T02:49:06;4.45;;;3.30;;
26920;SDS011;14483;47.844;9.660;2022-09-24T02:51:33;9.13;;;3.58;;
26920;SDS011;14483;47.844;9.660;2022-09-24T02:53:59;8.23;;;4.07;;
26920;SDS011;14483;47.844;9.660;2022-09-24T02:56:27;12.25;;;3.65;;
26920;SDS011;14483;47.844;9.660;2022-09-24T02:58:53;7.47;;;4.53;;
26920;SDS011;14483;47.844;9.660;2022-09-24T03:01:20;10.85;;;3.75;;
26920;SDS011;14483;47.844;9.660;2022-09-24T03:03:47;6.25;;;3.72;;
26920;SDS011;14483;47.844;9.660;2022-09-24T03:06:13;9.25;;;4.90;;
26920;SDS011;14483;47.844;9.660;2022-09-24T03:08:40;9.15;;;4.00;;
26920;SDS011;14483;47.844;9.660;2022-09-24T03:11:07;5.13;;;3.83;;
26920;SDS011;14483;47.844;9.660;2022-09-24T03:13:35;8.40;;;4.30;;
26920;SDS011;14483;47.844;9.660;2022-09-24T03:16:02;6.60;;;4.43;;
26920;SDS011;14483;47.844;9.660;2022-09-24T03:18:28;6.53;;;3.88;;
26920;SDS011;14483;47.844;9.660;2022-09-24T03:20:55;7.53;;;4.07;;
26920;SDS011;14483;47.844;9.660;2022-09-24T03:23:22;5.72;;;4.03;;
26920;SDS011;14483;47.844;9.660;2022-09-24T03:25:48;8.25;;;4.00;;
26920;SDS011;14483;47.844;9.660;2022-09-24T03:28:14;6.00;;;4.60;;
26920;SDS011;14483;47.844;9.660;2022-09-24T03:30:42;7.05;;;4.20;;
26920;SDS011;14483;47.844;9.660;2022-09-24T03:33:26;6.30;;;4.22;;
26920;SDS011;14483;47.844;9.660;2022-09-24T03:35:56;6.00;;;3.97;;
26920;SDS011;14483;47.844;9.660;2022-09-24T03:38:23;6.43;;;4.25;;
26920;SDS011;14483;47.844;9.660;2022-09-24T03:40:49;6.18;;;4.30;;
26920;SDS011;14483;47.844;9.660;2022-09-24T03:43:16;6.88;;;3.85;;
26920;SDS011;14483;47.844;9.660;2022-09-24T03:45:43;5.75;;;3.88;;
26920;SDS011;14483;47.844;9.660;2022-09-24T03:48:10;9.57;;;3.78;;
26920;SDS011;14483;47.844;9.660;2022-09-24T03:50:37;6.53;;;4.35;;
26920;SDS011;14483;47.844;9.660;2022-09-24T03:53:03;7.53;;;3.60;;
26920;SDS011;14483;47.844;9.660;2022-09-24T03:55:29;8.15;;;3.80;;
26920;SDS011;14483;47.844;9.660;2022-09-24T03:57:56;5.32;;;3.83;;
26920;SDS011;14483;47.844;9.660;2022-09-24T04:00:22;10.32;;;4.72;;
26920;SDS011;14483;47.844;9.660;2022-09-24T04:02:50;7.70;;;4.82;;
26920;SDS011;14483;47.844;9.660;2022-09-24T04:05:16;9.65;;;5.72;;
26920;SDS011;14483;47.844;9.660;2022-09-24T04:07:43;7.53;;;4.93;;
26920;SDS011;14483;47.844;9.660;2022-09-24T04:10:09;8.63;;;4.50;;
26920;SDS011;14483;47.844;9.660;2022-09-24T04:12:36;6.90;;;4.55;;
26920;SDS011;14483;47.844;9.660;2022-09-24T04:15:03;9.70;;;5.00;;
26920;SDS011;14483;47.844;9.660;2022-09-24T04:17:29;10.95;;;4.13;;
26920;SDS011;14483;47.844;9.660;2022-09-24T04:19:57;11.00;;;4.82;;
26920;SDS011;14483;47.844;9.660;2022-09-24T04:22:24;6.68;;;4.30;;
26920;SDS011;14483;47.844;9.660;2022-09-24T04:24:52;8.65;;;4.88;;
26920;SDS011;14483;47.844;9.660;2022-09-24T04:27:18;11.55;;;5.35;;
26920;SDS011;14483;47.844;9.660;2022-09-24T04:29:45;10.85;;;5.45;;
26920;SDS011;14483;47.844;9.660;2022-09-24T04:32:12;8.43;;;5.20;;
26920;SDS011;14483;47.844;9.660;2022-09-24T04:34:38;5.93;;;4.25;;
26920;SDS011;14483;47.844;9.660;2022-09-24T04:37:06;8.05;;;4.10;;
26920;SDS011;14483;47.844;9.660;2022-09-24T04:39:34;8.02;;;4.53;;
26920;SDS011;14483;47.844;9.660;2022-09-24T04:42:00;12.35;;;4.80;;
26920;SDS011;14483;47.844;9.660;2022-09-24T04:44:26;8.48;;;5.35;;
26920;SDS011;14483;47.844;9.660;2022-09-24T04:46:53;8.27;;;4.63;;
26920;SDS011;14483;47.844;9.660;2022-09-24T04:49:24;6.63;;;4.38;;
26920;SDS011;14483;47.844;9.660;2022-09-24T04:51:50;6.93;;;4.95;;
26920;SDS011;14483;47.844;9.660;2022-09-24T04:54:18;6.15;;;4.75;;
26920;SDS011;14483;47.844;9.660;2022-09-24T04:56:44;12.02;;;5.25;;
26920;SDS011;14483;47.844;9.660;2022-09-24T04:59:11;7.30;;;4.93;;
26920;SDS011;14483;47.844;9.660;2022-09-24T05:01:37;8.27;;;4.90;;
26920;SDS011;14483;47.844;9.660;2022-09-24T05:04:03;7.55;;;4.50;;
26920;SDS011;14483;47.844;9.660;2022-09-24T05:06:30;8.25;;;5.70;;
26920;SDS011;14483;47.844;9.660;2022-09-24T05:08:57;8.70;;;5.30;;
26920;SDS011;14483;47.844;9.660;2022-09-24T05:11:24;7.05;;;4.93;;
26920;SDS011;14483;47.844;9.660;2022-09-24T05:13:51;5.50;;;4.45;;
26920;SDS011;14483;47.844;9.660;2022-09-24T05:16:17;7.18;;;5.28;;
26920;SDS011;14483;47.844;9.660;2022-09-24T05:18:43;8.90;;;5.47;;
26920;SDS011;14483;47.844;9.660;2022-09-24T05:21:10;7.88;;;5.35;;
26920;SDS011;14483;47.844;9.660;2022-09-24T05:23:36;7.82;;;5.40;;
26920;SDS011;14483;47.844;9.660;2022-09-24T05:26:03;8.80;;;5.38;;
26920;SDS011;14483;47.844;9.660;2022-09-24T05:28:49;9.00;;;5.35;;
26920;SDS011;14483;47.844;9.660;2022-09-24T05:31:16;8.00;;;5.80;;
26920;SDS011;14483;47.844;9.660;2022-09-24T05:33:42;8.73;;;6.25;;
26920;SDS011;14483;47.844;9.660;2022-09-24T05:36:08;8.32;;;5.82;;
26920;SDS011;14483;47.844;9.660;2022-09-24T05:38:35;6.95;;;5.32;;
26920;SDS011;14483;47.844;9.660;2022-09-24T05:41:01;9.65;;;6.78;;
26920;SDS011;14483;47.844;9.660;2022-09-24T05:43:28;10.27;;;6.63;;
26920;SDS011;14483;47.844;9.660;2022-09-24T05:45:57;8.60;;;6.38;;
26920;SDS011;14483;47.844;9.660;2022-09-24T05:48:23;8.60;;;6.28;;
26920;SDS011;14483;47.844;9.660;2022-09-24T05:50:50;11.05;;;7.88;;
26920;SDS011;14483;47.844;9.660;2022-09-24T05:53:20;11.77;;;7.50;;
26920;SDS011;14483;47.844;9.660;2022-09-24T05:55:46;11.90;;;8.02;;
26920;SDS011;14483;47.844;9.660;2022-09-24T05:58:12;11.20;;;8.45;;
26920;SDS011;14483;47.844;9.660;2022-09-24T06:00:39;11.48;;;7.68;;
26920;SDS011;14483;47.844;9.660;2022-09-24T06:03:09;13.75;;;9.15;;
26920;SDS011;14483;47.844;9.660;2022-09-24T06:05:36;11.50;;;8.10;;
26920;SDS011;14483;47.844;9.660;2022-09-24T06:08:02;9.27;;;6.53;;
26920;SDS011;14483;47.844;9.660;2022-09-24T06:10:29;8.98;;;6.70;;
26920;SDS011;14483;47.844;9.660;2022-09-24T06:12:55;7.25;;;5.35;;
26920;SDS011;14483;47.844;9.660;2022-09-24T06:15:21;10.00;;;5.95;;
26920;SDS011;14483;47.844;9.660;2022-09-24T06:17:51;8.95;;;5.82;;
26920;SDS011;14483;47.844;9.660;2022-09-24T06:20:19;9.02;;;5.88;;
26920;SDS011;14483;47.844;9.660;2022-09-24T06:22:45;10.18;;;6.57;;
26920;SDS011;14483;47.844;9.660;2022-09-24T06:25:12;10.38;;;6.10;;
26920;SDS011;14483;47.844;9.660;2022-09-24T06:27:38;8.10;;;6.32;;
26920;SDS011;14483;47.844;9.660;2022-09-24T06:30:05;12.90;;;7.35;;
26920;SDS011;14483;47.844;9.660;2022-09-24T06:32:32;9.77;;;6.97;;
26920;SDS011;14483;47.844;9.660;2022-09-24T06:34:58;11.00;;;6.50;;
26920;SDS011;14483;47.844;9.660;2022-09-24T06:37:26;9.13;;;6.80;;
26920;SDS011;14483;47.844;9.660;2022-09-24T06:39:52;10.82;;;6.40;;
26920;SDS011;14483;47.844;9.660;2022-09-24T06:42:19;7.97;;;5.57;;
26920;SDS011;14483;47.844;9.660;2022-09-24T06:44:45;10.25;;;5.80;;
26920;SDS011;14483;47.844;9.660;2022-09-24T06:47:12;8.88;;;5.70;;
26920;SDS011;14483;47.844;9.660;2022-09-24T06:49:38;8.18;;;6.15;;
26920;SDS011;14483;47.844;9.660;2022-09-24T06:52:05;8.15;;;5.45;;
26920;SDS011;14483;47.844;9.660;2022-09-24T06:54:33;9.45;;;6.40;;
26920;SDS011;14483;47.844;9.660;2022-09-24T06:56:59;8.07;;;6.20;;
26920;SDS011;14483;47.844;9.660;2022-09-24T06:59:26;11.13;;;6.85;;
26920;SDS011;14483;47.844;9.660;2022-09-24T07:01:52;11.27;;;6.22;;
26920;SDS011;14483;47.844;9.660;2022-09-24T07:04:18;10.65;;;6.85;;
26920;SDS011;14483;47.844;9.660;2022-09-24T07:06:45;9.32;;;6.82;;
26920;SDS011;14483;47.844;9.660;2022-09-24T07:09:28;10.00;;;6.20;;
26920;SDS011;14483;47.844;9.660;2022-09-24T07:11:58;11.15;;;7.25;;
26920;SDS011;14483;47.844;9.660;2022-09-24T07:14:25;13.98;;;7.63;;
26920;SDS011;14483;47.844;9.660;2022-09-24T07:16:51;12.32;;;7.18;;
26920;SDS011;14483;47.844;9.660;2022-09-24T07:19:18;11.25;;;7.75;;
26920;SDS011;14483;47.844;9.660;2022-09-24T07:21:44;10.25;;;7.65;;
26920;SDS011;14483;47.844;9.660;2022-09-24T07:24:11;11.15;;;7.75;;
26920;SDS011;14483;47.844;9.660;2022-09-24T07:26:37;11.20;;;7.80;;
26920;SDS011;14483;47.844;9.660;2022-09-24T07:29:05;14.50;;;7.85;;
26920;SDS011;14483;47.844;9.660;2022-09-24T07:31:31;12.52;;;8.73;;
26920;SDS011;14483;47.844;9.660;2022-09-24T07:33:58;11.02;;;7.80;;
26920;SDS011;14483;47.844;9.660;2022-09-24T07:36:24;9.00;;;6.60;;
26920;SDS011;14483;47.844;9.660;2022-09-24T07:38:50;10.20;;;6.57;;
26920;SDS011;14483;47.844;9.660;2022-09-24T07:41:17;11.55;;;7.32;;
26920;SDS011;14483;47.844;9.660;2022-09-24T07:43:44;10.57;;;6.70;;
26920;SDS011;14483;47.844;9.660;2022-09-24T07:46:12;16.95;;;7.18;;
26920;SDS011;14483;47.844;9.660;2022-09-24T07:48:38;11.50;;;6.82;;
26920;SDS011;14483;47.844;9.660;2022-09-24T07:51:08;9.55;;;6.40;;
26920;SDS011;14483;47.844;9.660;2022-09-24T07:53:34;9.80;;;6.65;;
26920;SDS011;14483;47.844;9.660;2022-09-24T07:56:01;11.68;;;6.28;;
26920;SDS011;14483;47.844;9.660;2022-09-24T07:58:27;9.63;;;6.22;;
26920;SDS011;14483;47.844;9.660;2022-09-24T08:00:55;8.40;;;6.35;;
26920;SDS011;14483;47.844;9.660;2022-09-24T08:03:23;7.43;;;5.40;;
26920;SDS011;14483;47.844;9.660;2022-09-24T08:05:50;11.93;;;5.93;;
26920;SDS011;14483;47.844;9.660;2022-09-24T08:08:21;8.95;;;6.18;;
26920;SDS011;14483;47.844;9.660;2022-09-24T08:10:47;13.50;;;6.13;;
26920;SDS011;14483;47.844;9.660;2022-09-24T08:13:13;11.30;;;6.63;;
26920;SDS011;14483;47.844;9.660;2022-09-24T08:15:40;8.80;;;6.65;;
26920;SDS011;14483;47.844;9.660;2022-09-24T08:18:06;8.98;;;6.13;;
26920;SDS011;14483;47.844;9.660;2022-09-24T08:20:34;8.45;;;6.30;;
26920;SDS011;14483;47.844;9.660;2022-09-24T08:23:01;9.52;;;5.82;;
26920;SDS011;14483;47.844;9.660;2022-09-24T08:25:28;7.55;;;5.60;;
26920;SDS011;14483;47.844;9.660;2022-09-24T08:27:55;9.27;;;6.28;;
26920;SDS011;14483;47.844;9.660;2022-09-24T08:30:21;8.63;;;6.38;;
26920;SDS011;14483;47.844;9.660;2022-09-24T08:32:47;9.43;;;5.70;;
26920;SDS011;14483;47.844;9.660;2022-09-24T08:35:14;10.25;;;6.82;;
26920;SDS011;14483;47.844;9.660;2022-09-24T08:37:42;11.13;;;6.72;;
26920;SDS011;14483;47.844;9.660;2022-09-24T08:40:09;9.93;;;6.28;;
26920;SDS011;14483;47.844;9.660;2022-09-24T08:42:40;8.02;;;6.03;;
26920;SDS011;14483;47.844;9.660;2022-09-24T08:45:08;7.63;;;5.75;;
26920;SDS011;14483;47.844;9.660;2022-09-24T08:47:53;7.47;;;5.18;;
26920;SDS011;14483;47.844;9.660;2022-09-24T08:50:21;9.50;;;5.55;;
26920;SDS011;14483;47.844;9.660;2022-09-24T08:52:52;8.90;;;5.25;;
26920;SDS011;14483;47.844;9.660;2022-09-24T08:55:21;11.63;;;6.10;;
26920;SDS011;14483;47.844;9.660;2022-09-24T08:57:50;9.35;;;5.00;;
26920;SDS011;14483;47.844;9.660;2022-09-24T09:00:20;7.55;;;4.80;;
26920;SDS011;14483;47.844;9.660;2022-09-24T09:02:49;7.65;;;5.28;;
26920;SDS011;14483;47.844;9.660;2022-09-24T09:05:18;5.90;;;4.47;;
26920;SDS011;14483;47.844;9.660;2022-09-24T09:07:53;8.75;;;4.75;;
26920;SDS011;14483;47.844;9.660;2022-09-24T09:10:23;7.20;;;4.22;;
26920;SDS011;14483;47.844;9.660;2022-09-24T09:12:53;7.45;;;4.22;;
26920;SDS011;14483;47.844;9.660;2022-09-24T09:15:20;7.65;;;4.63;;
26920;SDS011;14483;47.844;9.660;2022-09-24T09:17:49;7.38;;;5.03;;
26920;SDS011;14483;47.844;9.660;2022-09-24T09:20:16;7.65;;;5.03;;
26920;SDS011;14483;47.844;9.660;2022-09-24T09:22:45;7.50;;;5.22;;
26920;SDS011;14483;47.844;9.660;2022-09-24T09:25:16;8.43;;;5.07;;
26920;SDS011;14483;47.844;9.660;2022-09-24T09:27:43;8.10;;;5.78;;
26920;SDS011;14483;47.844;9.660;2022-09-24T09:30:19;7.28;;;5.85;;
26920;SDS011;14483;47.844;9.660;2022-09-24T09:32:56;7.68;;;5.30;;
26920;SDS011;14483;47.844;9.660;2022-09-24T09:35:28;6.10;;;4.60;;
26920;SDS011;14483;47.844;9.660;2022-09-24T09:37:58;9.68;;;5.45;;
26920;SDS011;14483;47.844;9.660;2022-09-24T09:40:30;7.18;;;5.00;;
26920;SDS011;14483;47.844;9.660;2022-09-24T09:42:59;6.45;;;4.40;;
26920;SDS011;14483;47.844;9.660;2022-09-24T09:45:29;8.25;;;4.75;;
26920;SDS011;14483;47.844;9.660;2022-09-24T09:47:57;6.35;;;4.88;;
26920;SDS011;14483;47.844;9.660;2022-09-24T09:50:27;7.80;;;4.30;;
26920;SDS011;14483;47.844;9.660;2022-09-24T09:52:55;7.43;;;4.80;;
26920;SDS011;14483;47.844;9.660;2022-09-24T09:55:22;7.45;;;5.20;;
26920;SDS011;14483;47.844;9.660;2022-09-24T09:57:51;6.30;;;4.43;;
26920;SDS011;14483;47.844;9.660;2022-09-24T10:00:24;6.60;;;3.85;;
26920;SDS011;14483;47.844;9.660;2022-09-24T10:02:51;6.32;;;4.30;;
26920;SDS011;14483;47.844;9.660;2022-09-24T10:05:18;6.22;;;4.35;;
26920;SDS011;14483;47.844;9.660;2022-09-24T10:07:45;5.95;;;4.35;;
26920;SDS011;14483;47.844;9.660;2022-09-24T10:10:15;5.88;;;3.92;;
26920;SDS011;14483;47.844;9.660;2022-09-24T10:12:42;5.10;;;3.65;;
26920;SDS011;14483;47.844;9.660;2022-09-24T10:15:15;5.13;;;3.45;;
26920;SDS011;14483;47.844;9.660;2022-09-24T10:17:42;5.70;;;3.30;;
26920;SDS011;14483;47.844;9.660;2022-09-24T10:20:14;6.65;;;3.42;;
26920;SDS011;14483;47.844;9.660;2022-09-24T10:22:44;6.73;;;3.30;;
26920;SDS011;14483;47.844;9.660;2022-09-24T10:25:15;4.65;;;3.45;;
26920;SDS011;14483;47.844;9.660;2022-09-24T10:27:42;5.65;;;3.90;;
26920;SDS011;14483;47.844;9.660;2022-09-24T10:30:11;4.32;;;3.17;;
26920;SDS011;14483;47.844;9.660;2022-09-24T10:32:57;4.68;;;3.42;;
26920;SDS011;14483;47.844;9.660;2022-09-24T10:35:27;5.72;;;3.72;;
26920;SDS011;14483;47.844;9.660;2022-09-24T10:37:54;4.20;;;2.95;;
26920;SDS011;14483;47.844;9.660;2022-09-24T10:40:21;3.88;;;3.00;;
26920;SDS011;14483;47.844;9.660;2022-09-24T10:42:56;3.65;;;2.55;;
26920;SDS011;14483;47.844;9.660;2022-09-24T10:45:25;5.13;;;2.70;;
26920;SDS011;14483;47.844;9.660;2022-09-24T10:47:56;5.70;;;3.00;;
26920;SDS011;14483;47.844;9.660;2022-09-24T10:50:26;4.22;;;2.58;;
26920;SDS011;14483;47.844;9.660;2022-09-24T10:52:56;3.85;;;2.20;;
26920;SDS011;14483;47.844;9.660;2022-09-24T10:55:30;3.95;;;2.15;;
26920;SDS011;14483;47.844;9.660;2022-09-24T10:58:00;3.75;;;2.58;;
26920;SDS011;14483;47.844;9.660;2022-09-24T11:00:30;4.82;;;2.80;;
26920;SDS011;14483;47.844;9.660;2022-09-24T11:05:46;5.15;;;2.92;;
26920;SDS011;14483;47.844;9.660;2022-09-24T11:08:18;4.18;;;2.50;;
26920;SDS011;14483;47.844;9.660;2022-09-24T11:10:53;4.68;;;2.80;;
26920;SDS011;14483;47.844;9.660;2022-09-24T11:13:26;6.47;;;3.15;;
26920;SDS011;14483;47.844;9.660;2022-09-24T11:16:11;6.82;;;2.95;;
26920;SDS011;14483;47.844;9.660;2022-09-24T11:18:41;5.93;;;3.85;;
26920;SDS011;14483;47.844;9.660;2022-09-24T11:21:16;5.07;;;3.15;;
26920;SDS011;14483;47.844;9.660;2022-09-24T11:23:53;4.90;;;3.10;;
26920;SDS011;14483;47.844;9.660;2022-09-24T11:26:25;5.57;;;3.15;;
26920;SDS011;14483;47.844;9.660;2022-09-24T11:29:05;5.45;;;3.17;;
26920;SDS011;14483;47.844;9.660;2022-09-24T11:31:36;8.07;;;3.45;;
26920;SDS011;14483;47.844;9.660;2022-09-24T11:34:10;5.45;;;2.85;;
26920;SDS011;14483;47.844;9.660;2022-09-24T11:36:44;6.82;;;3.20;;
26920;SDS011;14483;47.844;9.660;2022-09-24T11:39:21;6.38;;;2.90;;
26920;SDS011;14483;47.844;9.660;2022-09-24T11:41:55;4.88;;;2.08;;
26920;SDS011;14483;47.844;9.660;2022-09-24T11:47:11;5.15;;;2.60;;
26920;SDS011;14483;47.844;9.660;2022-09-24T11:49:44;4.20;;;2.42;;
26920;SDS011;14483;47.844;9.660;2022-09-24T11:52:23;2.78;;;1.60;;
26920;SDS011;14483;47.844;9.660;2022-09-24T11:54:55;2.38;;;1.58;;
26920;SDS011;14483;47.844;9.660;2022-09-24T11:57:24;2.90;;;1.05;;
26920;SDS011;14483;47.844;9.660;2022-09-24T11:59:52;2.20;;;1.20;;
26920;SDS011;14483;47.844;9.660;2022-09-24T12:02:22;2.58;;;1.27;;
26920;SDS011;14483;47.844;9.660;2022-09-24T12:04:52;2.85;;;1.52;;
26920;SDS011;14483;47.844;9.660;2022-09-24T12:07:21;2.38;;;1.40;;
26920;SDS011;14483;47.844;9.660;2022-09-24T12:09:50;2.13;;;1.42;;
26920;SDS011;14483;47.844;9.660;2022-09-24T12:12:19;3.45;;;1.80;;
26920;SDS011;14483;47.844;9.660;2022-09-24T12:14:46;2.10;;;1.33;;
26920;SDS011;14483;47.844;9.660;2022-09-24T12:17:16;1.35;;;0.88;;
26920;SDS011;14483;47.844;9.660;2022-09-24T12:19:47;1.95;;;1.23;;
26920;SDS011;14483;47.844;9.660;2022-09-24T12:22:14;2.50;;;1.23;;
26920;SDS011;14483;47.844;9.660;2022-09-24T12:24:44;2.38;;;1.05;;
26920;SDS011;14483;47.844;9.660;2022-09-24T12:27:13;2.13;;;1.38;;
26920;SDS011;14483;47.844;9.660;2022-09-24T12:29:43;1.92;;;1.20;;
26920;SDS011;14483;47.844;9.660;2022-09-24T12:32:30;3.20;;;1.60;;
26920;SDS011;14483;47.844;9.660;2022-09-24T12:35:21;2.70;;;1.50;;
26920;SDS011;14483;47.844;9.660;2022-09-24T12:37:50;3.92;;;1.70;;
26920;SDS011;14483;47.844;9.660;2022-09-24T12:40:30;3.55;;;1.73;;
26920;SDS011;14483;47.844;9.660;2022-09-24T12:43:01;2.70;;;1.60;;
26920;SDS011;14483;47.844;9.660;2022-09-24T12:45:29;3.85;;;1.75;;
26920;SDS011;14483;47.844;9.660;2022-09-24T12:47:58;2.95;;;1.83;;
26920;SDS011;14483;47.844;9.660;2022-09-24T12:50:25;5.63;;;1.73;;
26920;SDS011;14483;47.844;9.660;2022-09-24T12:52:53;3.45;;;1.50;;
26920;SDS011;14483;47.844;9.660;2022-09-24T12:55:20;4.45;;;1.40;;
26920;SDS011;14483;47.844;9.660;2022-09-24T12:57:52;2.10;;;1.20;;
26920;SDS011;14483;47.844;9.660;2022-09-24T13:00:32;2.28;;;1.30;;
26920;SDS011;14483;47.844;9.660;2022-09-24T13:02:59;1.77;;;1.13;;
26920;SDS011;14483;47.844;9.660;2022-09-24T13:05:27;3.33;;;1.10;;
26920;SDS011;14483;47.844;9.660;2022-09-24T13:07:55;2.45;;;1.02;;
26920;SDS011;14483;47.844;9.660;2022-09-24T13:10:23;2.95;;;1.40;;
26920;SDS011;14483;47.844;9.660;2022-09-24T13:12:52;3.40;;;1.58;;
26920;SDS011;14483;47.844;9.660;2022-09-24T13:15:22;2.30;;;1.20;;
26920;SDS011;14483;47.844;9.660;2022-09-24T13:17:58;2.08;;;1.45;;
26920;SDS011;14483;47.844;9.660;2022-09-24T13:20:25;3.63;;;1.75;;
26920;SDS011;14483;47.844;9.660;2022-09-24T13:22:54;2.67;;;1.70;;
26920;SDS011;14483;47.844;9.660;2022-09-24T13:25:22;5.45;;;1.63;;
26920;SDS011;14483;47.844;9.660;2022-09-24T13:27:56;2.85;;;1.50;;
26920;SDS011;14483;47.844;9.660;2022-09-24T13:30:25;5.55;;;1.63;;
26920;SDS011;14483;47.844;9.660;2022-09-24T13:32:57;2.97;;;2.13;;
26920;SDS011;14483;47.844;9.660;2022-09-24T13:35:25;3.10;;;2.17;;
26920;SDS011;14483;47.844;9.660;2022-09-24T13:37:54;3.50;;;1.52;;
26920;SDS011;14483;47.844;9.660;2022-09-24T13:40:23;6.65;;;2.00;;
26920;SDS011;14483;47.844;9.660;2022-09-24T13:42:53;4.57;;;2.40;;
26920;SDS011;14483;47.844;9.660;2022-09-24T13:45:22;5.47;;;2.55;;
26920;SDS011;14483;47.844;9.660;2022-09-24T13:47:50;5.03;;;2.97;;
26920;SDS011;14483;47.844;9.660;2022-09-24T13:50:18;3.53;;;2.10;;
26920;SDS011;14483;47.844;9.660;2022-09-24T13:52:46;4.72;;;1.58;;
26920;SDS011;14483;47.844;9.660;2022-09-24T13:55:16;3.03;;;1.73;;
26920;SDS011;14483;47.844;9.660;2022-09-24T13:57:43;4.00;;;1.80;;
26920;SDS011;14483;47.844;9.660;2022-09-24T14:00:13;2.45;;;1.52;;
26920;SDS011;14483;47.844;9.660;2022-09-24T14:02:43;3.38;;;1.70;;
26920;SDS011;14483;47.844;9.660;2022-09-24T14:05:13;2.65;;;1.40;;
26920;SDS011;14483;47.844;9.660;2022-09-24T14:07:40;2.22;;;1.42;;
26920;SDS011;14483;47.844;9.660;2022-09-24T14:10:11;2.80;;;1.65;;
26920;SDS011;14483;47.844;9.660;2022-09-24T14:12:38;2.97;;;1.98;;
26920;SDS011;14483;47.844;9.660;2022-09-24T14:15:08;4.05;;;2.17;;
26920;SDS011;14483;47.844;9.660;2022-09-24T14:17:38;3.88;;;1.58;;
26920;SDS011;14483;47.844;9.660;2022-09-24T14:20:07;2.78;;;1.73;;
26920;SDS011;14483;47.844;9.660;2022-09-24T14:22:38;3.03;;;2.10;;
26920;SDS011;14483;47.844;9.660;2022-09-24T14:25:05;4.55;;;2.20;;
26920;SDS011;14483;47.844;9.660;2022-09-24T14:27:32;3.50;;;2.28;;
26920;SDS011;14483;47.844;9.660;2022-09-24T14:30:04;4.35;;;2.58;;
26920;SDS011;14483;47.844;9.660;2022-09-24T14:32:32;5.45;;;2.50;;
26920;SDS011;14483;47.844;9.660;2022-09-24T14:35:00;4.03;;;2.47;;
26920;SDS011;14483;47.844;9.660;2022-09-24T14:37:30;3.38;;;2.10;;
26920;SDS011;14483;47.844;9.660;2022-09-24T14:39:59;4.10;;;2.08;;
26920;SDS011;14483;47.844;9.660;2022-09-24T14:42:26;2.72;;;1.75;;
26920;SDS011;14483;47.844;9.660;2022-09-24T14:44:54;4.47;;;2.40;;
26920;SDS011;14483;47.844;9.660;2022-09-24T14:47:23;3.53;;;2.25;;
26920;SDS011;14483;47.844;9.660;2022-09-24T14:49:50;3.28;;;2.10;;
26920;SDS011;14483;47.844;9.660;2022-09-24T14:52:23;4.53;;;2.28;;
26920;SDS011;14483;47.844;9.660;2022-09-24T14:55:00;3.72;;;2.60;;
26920;SDS011;14483;47.844;9.660;2022-09-24T14:57:26;3.22;;;2.20;;
26920;SDS011;14483;47.844;9.660;2022-09-24T14:59:53;4.68;;;2.60;;